createdAt,value
2018-06-12T00:02:01.599Z,18.78
2018-06-12T00:04:31.088Z,18.74
2018-06-12T00:06:59.615Z,18.68
2018-06-12T00:09:28.135Z,18.67
2018-06-12T00:11:56.656Z,18.65
2018-06-12T00:14:25.097Z,18.65
2018-06-12T00:16:53.592Z,18.62
2018-06-12T00:19:23.006Z,18.60
2018-06-12T00:21:51.461Z,18.57
2018-06-12T00:24:20.027Z,18.59
2018-06-12T00:26:48.607Z,18.56
2018-06-12T00:29:17.038Z,18.56
2018-06-12T00:31:45.505Z,18.56
2018-06-12T00:34:14.027Z,18.55
2018-06-12T00:36:42.575Z,18.60
2018-06-12T00:39:11.043Z,18.56
2018-06-12T00:41:39.589Z,18.50
2018-06-12T00:44:08.047Z,18.50
2018-06-12T00:46:36.534Z,18.54
2018-06-12T00:49:05.559Z,18.55
2018-06-12T00:51:34.142Z,18.54
2018-06-12T00:54:02.591Z,18.54
2018-06-12T00:56:42.229Z,18.51
2018-06-12T00:59:10.998Z,18.49
2018-06-12T01:01:39.468Z,18.51
2018-06-12T01:04:07.933Z,18.46
2018-06-12T01:06:36.405Z,18.43
2018-06-12T01:09:06.232Z,18.47
2018-06-12T02:02:49.198Z,17.87
2018-06-12T02:05:17.931Z,17.92
2018-06-12T02:07:46.351Z,17.98
2018-06-12T02:10:14.754Z,18.04
2018-06-12T02:12:43.214Z,18.05
2018-06-12T02:15:11.923Z,18.10
2018-06-12T02:17:40.420Z,18.08
2018-06-12T02:20:08.962Z,18.04
2018-06-12T02:22:37.382Z,18.04
2018-06-12T02:25:06.610Z,18.07
2018-06-12T02:27:35.167Z,18.07
2018-06-12T02:30:03.804Z,18.00
2018-06-12T02:32:32.940Z,17.93
2018-06-12T02:35:01.515Z,17.95
2018-06-12T02:37:30.125Z,18.00
2018-06-12T02:39:58.742Z,18.03
2018-06-12T02:42:27.423Z,18.02
2018-06-12T02:44:55.839Z,18.01
2018-06-12T02:47:24.354Z,17.97
2018-06-12T02:49:53.874Z,17.93
2018-06-12T02:52:22.441Z,17.93
2018-06-12T02:54:51.079Z,17.91
2018-06-12T02:57:19.619Z,17.92
2018-06-12T02:59:48.057Z,17.90
2018-06-12T03:02:16.589Z,17.90
2018-06-12T03:04:45.179Z,17.94
2018-06-12T03:07:13.657Z,17.96
2018-06-12T03:09:42.086Z,17.93
2018-06-12T03:12:11.024Z,17.90
2018-06-12T03:14:39.491Z,17.92
2018-06-12T03:17:08.119Z,17.91
2018-06-12T03:19:36.759Z,18.00
2018-06-12T03:22:05.667Z,18.03
2018-06-12T03:24:38.186Z,17.98
2018-06-12T03:27:07.301Z,18.01
2018-06-12T03:29:36.192Z,17.98
2018-06-12T03:32:04.721Z,18.00
2018-06-12T03:34:33.309Z,17.97
2018-06-12T03:37:01.912Z,17.99
2018-06-12T03:39:30.431Z,18.08
2018-06-12T03:41:58.964Z,18.09
2018-06-12T03:44:27.964Z,18.04
2018-06-12T03:46:56.472Z,18.00
2018-06-12T03:49:25.002Z,17.96
2018-06-12T03:51:54.733Z,17.94
2018-06-12T03:54:23.148Z,17.88
2018-06-12T03:56:51.663Z,17.83
2018-06-12T03:59:20.137Z,17.84
2018-06-12T04:01:48.622Z,17.90
2018-06-12T04:04:17.124Z,17.93
2018-06-12T04:06:46.422Z,17.99
2018-06-12T04:09:15.266Z,17.97
2018-06-12T04:11:44.010Z,17.96
2018-06-12T04:14:12.525Z,17.97
2018-06-12T04:16:40.927Z,17.95
2018-06-12T04:19:10.506Z,17.97
2018-06-12T04:21:38.918Z,18.02
2018-06-12T04:24:07.586Z,18.06
2018-06-12T04:26:36.053Z,18.07
2018-06-12T04:29:08.000Z,18.08
2018-06-12T04:31:36.838Z,18.10
2018-06-12T04:34:05.452Z,18.09
2018-06-12T04:36:33.874Z,18.13
2018-06-12T04:39:02.487Z,18.16
2018-06-12T04:41:30.973Z,18.19
2018-06-12T04:43:59.743Z,18.18
2018-06-12T04:46:28.575Z,18.24
2018-06-12T04:48:57.107Z,18.32
2018-06-12T04:51:25.490Z,18.28
2018-06-12T04:53:53.974Z,18.27
2018-06-12T04:56:22.474Z,18.27
2018-06-12T04:58:50.989Z,18.24
2018-06-12T05:01:19.650Z,18.23
2018-06-12T05:03:48.150Z,18.30
2018-06-12T05:06:16.654Z,18.39
2018-06-12T05:08:45.355Z,18.50
2018-06-12T05:11:13.793Z,18.51
2018-06-12T05:13:42.223Z,18.51
2018-06-12T05:16:10.646Z,18.54
2018-06-12T05:18:39.098Z,18.60
2018-06-12T05:21:07.734Z,18.69
2018-06-12T05:23:36.170Z,18.64
2018-06-12T05:26:04.702Z,18.68
2018-06-12T05:28:33.139Z,18.68
2018-06-12T05:31:01.646Z,18.65
2018-06-12T05:33:33.795Z,18.60
2018-06-12T05:36:02.376Z,18.61
2018-06-12T05:38:30.834Z,18.64
2018-06-12T05:40:59.473Z,18.66
2018-06-12T05:43:27.956Z,18.67
2018-06-12T05:45:56.506Z,18.72
2018-06-12T05:48:25.284Z,18.79
2018-06-12T05:50:53.966Z,18.88
2018-06-12T05:53:22.467Z,18.97
2018-06-12T05:55:50.970Z,19.04
2018-06-12T05:58:19.514Z,19.05
2018-06-12T06:00:48.121Z,19.21
2018-06-12T06:03:16.592Z,19.18
2018-06-12T06:05:45.057Z,19.35
2018-06-12T06:08:13.558Z,19.44
2018-06-12T06:10:42.249Z,19.49
2018-06-12T06:13:10.695Z,19.58
2018-06-12T06:15:39.170Z,19.65
2018-06-12T06:18:07.567Z,19.69
2018-06-12T06:20:36.165Z,19.75
2018-06-12T06:23:04.726Z,19.86
2018-06-12T06:25:33.134Z,19.80
2018-06-12T06:28:01.886Z,19.78
2018-06-12T06:30:30.499Z,19.73
2018-06-12T06:32:59.058Z,19.63
2018-06-12T06:35:29.371Z,19.57
2018-06-12T06:37:57.810Z,19.64
2018-06-12T06:40:26.357Z,19.74
2018-06-12T06:42:54.853Z,19.86
2018-06-12T06:45:23.357Z,19.98
2018-06-12T06:47:53.233Z,20.12
2018-06-12T06:50:22.238Z,20.26
2018-06-12T06:52:50.759Z,20.32
2018-06-12T06:55:19.380Z,19.92
2018-06-12T06:57:48.063Z,19.85
2018-06-12T07:00:17.654Z,19.76
2018-06-12T07:02:46.096Z,19.70
2018-06-12T07:05:15.252Z,19.60
2018-06-12T07:07:44.709Z,19.62
2018-06-12T07:10:13.408Z,19.76
2018-06-12T07:12:42.160Z,20.19
2018-06-12T07:15:10.692Z,20.44
2018-06-12T07:17:39.185Z,20.73
2018-06-12T07:20:08.003Z,20.96
2018-06-12T07:22:36.545Z,21.03
2018-06-12T07:25:06.110Z,21.27
2018-06-12T07:27:35.711Z,21.58
2018-06-12T07:30:04.912Z,21.72
2018-06-12T07:32:33.290Z,21.80
2018-06-12T07:35:01.808Z,21.58
2018-06-12T07:37:30.394Z,21.41
2018-06-12T07:39:58.730Z,21.07
2018-06-12T07:42:30.909Z,20.91
2018-06-12T07:44:59.658Z,20.78
2018-06-12T07:47:28.241Z,20.77
2018-06-12T07:49:56.707Z,20.76
2018-06-12T07:52:25.147Z,20.80
2018-06-12T07:54:53.626Z,20.80
2018-06-12T07:57:22.087Z,21.02
2018-06-12T07:59:50.565Z,20.81
2018-06-12T08:02:19.047Z,21.07
2018-06-12T08:04:47.776Z,21.13
2018-06-12T08:07:16.243Z,21.41
2018-06-12T08:09:44.885Z,21.75
2018-06-12T08:12:14.669Z,22.28
2018-06-12T08:14:43.106Z,22.83
2018-06-12T08:17:11.638Z,23.12
2018-06-12T08:19:40.431Z,23.36
2018-06-12T08:22:10.106Z,23.08
2018-06-12T08:24:39.279Z,23.14
2018-06-12T08:27:07.849Z,23.12
2018-06-12T08:29:36.292Z,22.73
2018-06-12T08:32:04.815Z,22.72
2018-06-12T08:34:33.237Z,22.72
2018-06-12T08:37:01.719Z,22.33
2018-06-12T08:39:30.214Z,22.09
2018-06-12T08:41:58.698Z,22.29
2018-06-12T08:44:27.624Z,22.77
2018-06-12T08:47:00.642Z,22.80
2018-06-12T08:49:29.119Z,22.87
2018-06-12T08:51:57.672Z,22.70
2018-06-12T08:54:26.418Z,22.43
2018-06-12T08:56:54.937Z,22.14
2018-06-12T08:59:23.374Z,22.05
2018-06-12T09:01:51.842Z,22.03
2018-06-12T09:04:20.642Z,21.61
2018-06-12T09:06:49.259Z,21.62
2018-06-12T09:09:17.727Z,21.87
2018-06-12T09:11:46.158Z,22.10
2018-06-12T09:14:14.687Z,22.20
2018-06-12T09:16:43.146Z,22.14
2018-06-12T09:19:11.618Z,22.25
2018-06-12T09:21:40.082Z,22.03
2018-06-12T09:24:08.507Z,22.16
2018-06-12T09:26:36.925Z,22.13
2018-06-12T09:29:05.342Z,21.83
2018-06-12T09:31:34.831Z,21.80
2018-06-12T09:34:03.518Z,21.90
2018-06-12T09:36:35.635Z,22.20
2018-06-12T09:39:07.684Z,22.16
2018-06-12T09:41:36.570Z,22.29
2018-06-12T09:44:05.133Z,22.46
2018-06-12T09:46:33.606Z,22.64
2018-06-12T09:49:02.162Z,22.80
2018-06-12T09:51:30.830Z,22.47
2018-06-12T09:53:59.286Z,22.37
2018-06-12T09:56:27.829Z,22.09
2018-06-12T09:58:56.350Z,22.00
2018-06-12T10:01:25.330Z,21.52
2018-06-12T10:03:54.198Z,21.21
2018-06-12T10:06:22.610Z,20.80
2018-06-12T10:08:51.247Z,20.87
2018-06-12T10:11:19.753Z,20.96
2018-06-12T10:13:48.255Z,21.23
2018-06-12T10:16:17.827Z,21.65
2018-06-12T10:18:46.497Z,22.04
2018-06-12T10:21:15.244Z,22.02
2018-06-12T10:23:43.738Z,22.38
2018-06-12T10:26:12.246Z,22.63
2018-06-12T10:28:40.680Z,22.53
2018-06-12T10:31:09.338Z,22.42
2018-06-12T10:33:37.782Z,22.34
2018-06-12T10:36:06.295Z,22.21
2018-06-12T10:38:34.994Z,22.26
2018-06-12T10:41:03.497Z,22.69
2018-06-12T10:43:32.003Z,23.06
2018-06-12T10:46:00.462Z,23.19
2018-06-12T10:48:29.012Z,22.99
2018-06-12T10:50:57.483Z,22.66
2018-06-12T10:53:25.956Z,22.06
2018-06-12T10:55:58.956Z,21.79
2018-06-12T10:58:28.379Z,21.54
2018-06-12T11:00:56.945Z,21.62
2018-06-12T11:03:25.446Z,21.87
2018-06-12T11:05:53.822Z,21.98
2018-06-12T11:08:22.303Z,22.37
2018-06-12T11:10:50.741Z,22.47
2018-06-12T11:13:19.210Z,22.39
2018-06-12T11:15:47.927Z,22.51
2018-06-12T11:18:16.340Z,22.36
2018-06-12T11:20:44.807Z,22.37
2018-06-12T11:23:13.229Z,22.34
2018-06-12T11:25:41.710Z,22.42
2018-06-12T11:28:10.271Z,22.75
2018-06-12T11:30:38.855Z,23.00
2018-06-12T11:33:07.454Z,23.46
2018-06-12T11:35:35.938Z,23.47
2018-06-12T11:38:04.667Z,23.40
2018-06-12T11:40:33.162Z,23.60
2018-06-12T11:43:01.655Z,23.98
2018-06-12T11:45:30.127Z,23.85
2018-06-12T11:47:58.565Z,23.86
2018-06-12T11:50:27.149Z,23.81
2018-06-12T11:52:55.625Z,23.79
2018-06-12T11:55:24.359Z,23.97
2018-06-12T11:57:53.182Z,24.46
2018-06-12T12:00:25.641Z,24.92
2018-06-12T12:02:54.185Z,24.99
2018-06-12T12:05:22.658Z,25.15
2018-06-12T12:07:53.034Z,25.74
2018-06-12T12:10:21.608Z,25.57
2018-06-12T12:12:52.738Z,25.34
2018-06-12T12:15:23.886Z,25.72
2018-06-12T12:17:55.537Z,25.91
2018-06-12T12:20:26.797Z,26.39
2018-06-12T12:22:58.435Z,27.07
2018-06-12T12:25:29.935Z,27.29
2018-06-12T12:28:01.820Z,27.28
2018-06-12T12:30:34.923Z,26.62
2018-06-12T12:37:57.290Z,25.71
2018-06-12T12:40:35.809Z,24.88
2018-06-12T12:43:07.768Z,24.72
2018-06-12T12:45:40.339Z,24.87
2018-06-12T12:48:21.012Z,24.29
2018-06-12T12:50:53.277Z,24.84
2018-06-12T12:53:25.981Z,24.74
2018-06-12T12:55:59.039Z,24.90
2018-06-12T12:58:28.003Z,25.06
2018-06-12T13:01:00.502Z,25.14
2018-06-12T13:03:32.282Z,25.59
2018-06-12T13:15:42.261Z,25.83
2018-06-12T13:18:14.623Z,25.38
2018-06-12T13:20:51.703Z,25.02
2018-06-12T13:23:22.743Z,25.25
2018-06-12T13:25:53.508Z,25.48
2018-06-12T13:28:24.309Z,25.60
2018-06-12T13:30:55.963Z,25.25
2018-06-12T13:33:27.240Z,25.39
2018-06-12T13:36:17.806Z,25.03
2018-06-12T13:53:22.337Z,26.29
2018-06-12T13:55:54.270Z,27.43
2018-06-12T13:58:25.516Z,27.77
2018-06-12T14:00:56.964Z,28.68
2018-06-12T14:03:30.253Z,29.82
2018-06-12T14:06:30.266Z,30.13
2018-06-12T14:09:03.553Z,30.53
2018-06-12T14:11:41.463Z,30.78
2018-06-12T14:14:21.112Z,30.95
2018-06-12T14:16:53.568Z,30.63
2018-06-12T14:19:26.557Z,34.92
2018-06-12T14:22:03.657Z,36.87
2018-06-12T14:24:33.042Z,35.32
2018-06-12T14:27:04.583Z,33.97
2018-06-12T14:29:38.289Z,33.46
2018-06-12T14:32:11.069Z,33.39
2018-06-12T14:34:43.132Z,34.32
2018-06-12T14:37:17.342Z,36.58
2018-06-12T14:39:48.896Z,35.00
2018-06-12T14:42:19.935Z,32.95
2018-06-12T14:44:50.870Z,31.56
2018-06-12T14:47:21.910Z,31.18
2018-06-12T14:49:54.588Z,32.31
2018-06-12T14:52:25.931Z,31.79
2018-06-12T14:55:01.260Z,32.18
2018-06-12T14:57:34.867Z,32.36
2018-06-12T15:00:17.481Z,32.80
2018-06-12T15:02:51.475Z,32.84
2018-06-12T15:05:24.655Z,31.94
2018-06-12T15:24:22.844Z,31.37
2018-06-12T15:26:55.109Z,34.36
2018-06-12T15:29:25.944Z,33.69
2018-06-12T15:31:56.983Z,32.72
2018-06-12T15:34:28.515Z,31.40
2018-06-12T15:37:01.272Z,30.46
2018-06-12T15:39:30.103Z,29.78
2018-06-12T15:41:58.546Z,29.34
2018-06-12T15:44:27.226Z,29.32
2018-06-12T15:46:55.735Z,28.86
2018-06-12T15:49:24.527Z,29.86
2018-06-12T15:51:52.995Z,29.67
2018-06-12T15:54:21.461Z,29.90
2018-06-12T15:56:49.912Z,29.69
2018-06-12T15:59:18.387Z,29.29
2018-06-12T16:01:46.787Z,29.74
2018-06-12T16:04:15.267Z,31.88
2018-06-12T16:06:43.758Z,32.17
2018-06-12T16:09:12.249Z,31.28
2018-06-12T16:11:40.836Z,29.86
2018-06-12T16:14:09.422Z,30.01
2018-06-12T16:16:37.874Z,29.78
2018-06-12T16:19:06.329Z,29.68
2018-06-12T16:21:34.714Z,29.68
2018-06-12T16:24:03.206Z,29.07
2018-06-12T16:26:31.570Z,28.33
2018-06-12T16:28:59.990Z,28.02
2018-06-12T16:31:28.454Z,27.71
2018-06-12T16:33:56.855Z,27.25
2018-06-12T16:36:25.317Z,26.75
2018-06-12T16:38:53.866Z,25.94
2018-06-12T16:41:22.263Z,25.76
2018-06-12T16:43:50.688Z,25.84
2018-06-12T16:46:19.126Z,25.77
2018-06-12T16:48:47.718Z,25.91
2018-06-12T16:51:16.106Z,25.47
2018-06-12T16:53:44.627Z,25.45
2018-06-12T16:56:13.051Z,25.20
2018-06-12T16:58:41.449Z,25.07
2018-06-12T17:01:09.818Z,25.19
2018-06-12T17:03:38.225Z,25.12
2018-06-12T17:06:11.330Z,25.28
2018-06-12T17:08:42.953Z,25.39
2018-06-12T17:11:37.678Z,25.33
2018-06-12T17:14:09.747Z,25.40
2018-06-12T17:16:41.298Z,25.34
2018-06-12T17:19:12.784Z,25.28
2018-06-12T17:21:44.192Z,25.02
2018-06-12T17:24:17.072Z,24.98
2018-06-12T17:26:49.757Z,24.90
2018-06-12T17:29:21.013Z,24.61
2018-06-12T17:31:52.840Z,24.54
2018-06-12T17:34:25.119Z,24.47
2018-06-12T17:36:58.724Z,24.33
2018-06-12T17:39:30.096Z,24.28
2018-06-12T17:44:42.479Z,23.81
2018-06-12T17:47:13.117Z,23.64
2018-06-12T17:49:43.603Z,23.51
2018-06-12T17:52:14.991Z,23.46
2018-06-12T17:54:45.568Z,23.42
2018-06-12T17:57:16.503Z,23.38
2018-06-12T17:59:47.492Z,23.27
2018-06-12T18:02:19.759Z,23.15
2018-06-12T18:04:51.998Z,23.12
2018-06-12T18:07:23.081Z,23.04
2018-06-12T18:09:54.618Z,23.01
2018-06-12T18:12:27.193Z,22.92
2018-06-12T18:14:58.232Z,22.81
2018-06-12T18:17:29.676Z,22.71
2018-06-12T18:20:02.229Z,22.66
2018-06-12T18:22:33.907Z,22.58
2018-06-12T18:25:06.069Z,22.45
2018-06-12T18:27:37.914Z,22.38
2018-06-12T18:30:09.602Z,22.29
2018-06-12T18:32:41.237Z,22.20
2018-06-12T18:35:13.020Z,22.13
2018-06-12T18:37:44.820Z,22.03
2018-06-12T18:40:17.112Z,21.99
2018-06-12T18:42:49.384Z,21.92
2018-06-12T18:45:21.237Z,21.84
2018-06-12T18:47:53.447Z,21.79
2018-06-12T18:50:24.759Z,21.67
2018-06-12T18:52:56.526Z,21.64
2018-06-12T18:55:27.858Z,21.59
2018-06-12T18:57:59.292Z,21.53
2018-06-12T19:00:31.061Z,21.39
2018-06-12T19:03:04.449Z,21.29
2018-06-12T19:05:35.994Z,21.21
2018-06-12T19:08:07.345Z,21.15
2018-06-12T19:10:39.927Z,21.07
2018-06-12T19:13:11.362Z,20.93
2018-06-12T19:15:42.659Z,20.85
2018-06-12T19:18:14.267Z,20.80
2018-06-12T19:20:45.498Z,20.74
2018-06-12T19:23:16.860Z,20.67
2018-06-12T19:25:47.792Z,20.55
2018-06-12T19:28:19.547Z,20.43
2018-06-12T19:30:53.041Z,20.35
2018-06-12T19:33:24.489Z,20.34
2018-06-12T19:35:56.316Z,20.31
2018-06-12T19:38:27.516Z,20.25
2018-06-12T19:40:58.833Z,20.21
2018-06-12T19:43:30.580Z,20.19
2018-06-12T19:46:01.833Z,20.19
2018-06-12T19:48:33.269Z,20.16
2018-06-12T19:51:05.592Z,20.19
2018-06-12T19:53:37.503Z,20.22
2018-06-12T19:56:09.162Z,20.20
2018-06-12T19:58:41.018Z,20.18
2018-06-12T20:01:15.169Z,20.16
2018-06-12T20:03:46.168Z,20.16
2018-06-12T20:06:17.291Z,20.15
2018-06-12T20:08:49.182Z,20.09
2018-06-12T20:11:22.249Z,20.10
2018-06-12T20:13:54.004Z,20.05
2018-06-12T20:16:25.866Z,19.97
2018-06-12T20:18:58.438Z,19.90
2018-06-12T20:21:30.403Z,19.80
2018-06-12T20:24:02.591Z,19.70
2018-06-12T20:26:35.551Z,19.59
2018-06-12T20:29:08.190Z,19.53
2018-06-12T20:31:41.442Z,19.49
2018-06-12T20:34:13.268Z,19.42
2018-06-12T20:36:44.719Z,19.35
2018-06-12T20:39:16.218Z,19.30
2018-06-12T20:41:48.012Z,19.32
2018-06-12T20:44:18.758Z,19.31
2018-06-12T20:46:50.161Z,19.29
2018-06-12T20:49:21.040Z,19.33
2018-06-12T20:51:52.281Z,19.33
2018-06-12T20:54:24.180Z,19.33
2018-06-12T20:56:54.873Z,19.35
2018-06-12T20:59:25.804Z,19.31
2018-06-12T21:01:56.233Z,19.31
2018-06-12T21:04:26.760Z,19.36
2018-06-12T21:06:55.547Z,19.39
2018-06-12T21:09:24.057Z,19.34
2018-06-12T21:11:52.571Z,19.23
2018-06-12T21:14:21.226Z,19.18
2018-06-12T21:16:49.733Z,19.11
2018-06-12T21:19:18.272Z,19.06
2018-06-12T21:21:46.724Z,19.01
2018-06-12T21:24:15.162Z,18.94
2018-06-12T21:26:43.688Z,18.91
2018-06-12T21:29:12.143Z,18.82
2018-06-12T21:31:40.582Z,18.81
2018-06-12T21:34:09.250Z,18.79
2018-06-12T21:36:37.694Z,18.81
2018-06-12T21:39:07.765Z,18.65
2018-06-12T21:41:40.275Z,18.49
2018-06-12T21:44:08.743Z,18.40
2018-06-12T21:46:37.508Z,18.33
2018-06-12T21:49:06.078Z,18.19
2018-06-12T21:51:34.547Z,18.08
2018-06-12T21:54:03.165Z,17.92
2018-06-12T21:56:31.986Z,17.91
2018-06-12T21:59:00.442Z,17.79
2018-06-12T22:01:29.497Z,17.78
2018-06-12T22:03:57.929Z,17.75
2018-06-12T22:06:26.379Z,17.71
2018-06-12T22:08:54.786Z,17.71
2018-06-12T22:11:23.241Z,17.60
2018-06-12T22:13:51.835Z,17.50
2018-06-12T22:16:23.630Z,17.45
2018-06-12T22:18:52.845Z,17.32
2018-06-12T22:21:21.259Z,17.27
2018-06-12T22:23:49.739Z,17.22
2018-06-12T22:26:18.121Z,17.21
2018-06-12T22:28:46.522Z,17.17
2018-06-12T22:31:15.152Z,17.11
2018-06-12T22:33:43.586Z,17.06
2018-06-12T22:36:12.138Z,17.03
2018-06-12T22:38:40.698Z,17.13
2018-06-12T22:41:09.170Z,17.08
2018-06-12T22:43:37.806Z,17.04
2018-06-12T22:46:10.685Z,16.97
2018-06-12T22:48:39.142Z,16.94
2018-06-12T22:51:07.561Z,16.90
2018-06-12T22:53:36.223Z,16.79
2018-06-12T22:56:04.758Z,16.74
2018-06-12T22:58:33.551Z,16.68
2018-06-12T23:01:02.016Z,16.54
2018-06-12T23:03:30.754Z,16.46
2018-06-12T23:05:59.173Z,16.42
2018-06-12T23:08:27.649Z,16.31
2018-06-12T23:10:56.191Z,16.30
2018-06-12T23:13:24.595Z,16.24
2018-06-12T23:15:53.097Z,16.21
2018-06-12T23:18:21.913Z,16.16
2018-06-12T23:22:05.627Z,16.13
2018-06-12T23:24:34.326Z,15.94
2018-06-12T23:27:02.935Z,15.78
2018-06-12T23:29:31.371Z,15.73
2018-06-12T23:31:59.761Z,15.67
2018-06-12T23:34:28.313Z,15.62
2018-06-12T23:36:56.751Z,15.54
2018-06-12T23:39:25.273Z,15.49
2018-06-12T23:41:53.705Z,15.46
2018-06-12T23:44:22.182Z,15.40
2018-06-12T23:46:50.674Z,15.34
2018-06-12T23:49:19.126Z,15.32
2018-06-12T23:51:47.743Z,15.30
2018-06-12T23:54:16.437Z,15.29
2018-06-12T23:56:44.834Z,15.32
2018-06-12T23:59:13.255Z,15.25
